createdAt,value
2023-02-26T00:01:38.771Z,57.80
2023-02-26T00:04:07.405Z,57.90
2023-02-26T00:06:37.206Z,58.10
2023-02-26T00:09:05.336Z,58.00
2023-02-26T00:11:33.603Z,58.00
2023-02-26T00:14:02.104Z,58.10
2023-02-26T00:16:33.028Z,58.10
2023-02-26T00:19:01.834Z,58.20
2023-02-26T00:21:30.348Z,58.50
2023-02-26T00:23:58.439Z,58.30
2023-02-26T00:26:27.387Z,58.30
2023-02-26T00:28:56.125Z,58.30
2023-02-26T00:31:25.408Z,58.30
2023-02-26T00:33:55.596Z,58.40
2023-02-26T00:36:25.544Z,58.60
2023-02-26T00:39:03.290Z,58.50
2023-02-26T00:41:31.864Z,58.20
2023-02-26T00:44:00.579Z,58.00
2023-02-26T00:46:34.608Z,57.90
2023-02-26T00:49:05.657Z,58.00
2023-02-26T00:51:37.065Z,58.40
2023-02-26T00:54:06.430Z,58.20
2023-02-26T00:56:34.306Z,58.10
2023-02-26T00:59:02.300Z,58.20
2023-02-26T01:01:30.287Z,58.20
2023-02-26T01:03:58.712Z,58.30
2023-02-26T01:06:29.640Z,58.60
2023-02-26T01:09:01.006Z,58.40
2023-02-26T01:11:29.337Z,58.40
2023-02-26T01:13:57.773Z,58.40
2023-02-26T01:16:28.569Z,58.40
2023-02-26T01:18:59.724Z,58.40
2023-02-26T01:21:32.258Z,58.60
2023-02-26T01:24:00.186Z,58.70
2023-02-26T01:26:29.126Z,58.60
2023-02-26T01:28:57.584Z,58.20
2023-02-26T01:31:35.307Z,58.10
2023-02-26T01:34:06.077Z,58.00
2023-02-26T01:36:37.593Z,58.10
2023-02-26T01:39:07.482Z,58.40
2023-02-26T01:41:39.654Z,58.20
2023-02-26T01:44:15.524Z,58.20
2023-02-26T01:47:03.217Z,58.20
2023-02-26T01:49:31.501Z,58.30
2023-02-26T01:52:00.957Z,58.60
2023-02-26T01:54:30.865Z,58.60
2023-02-26T01:57:01.204Z,59.10
2023-02-26T01:59:29.224Z,58.50
2023-02-26T02:01:58.484Z,58.40
2023-02-26T02:04:26.749Z,58.50
2023-02-26T02:06:55.404Z,58.60
2023-02-26T02:09:24.693Z,58.80
2023-02-26T02:12:09.347Z,58.70
2023-02-26T02:14:45.030Z,58.40
2023-02-26T02:17:15.409Z,58.10
2023-02-26T02:19:54.088Z,58.10
2023-02-26T02:22:32.958Z,58.20
2023-02-26T02:25:11.680Z,58.40
2023-02-26T02:27:42.013Z,58.20
2023-02-26T02:30:26.617Z,58.30
2023-02-26T02:32:57.601Z,58.40
2023-02-26T02:35:26.771Z,58.50
2023-02-26T02:37:57.606Z,58.50
2023-02-26T02:40:26.858Z,58.70
2023-02-26T02:42:56.508Z,58.60
2023-02-26T02:45:27.205Z,58.50
2023-02-26T02:47:58.542Z,58.60
2023-02-26T02:50:28.874Z,58.60
2023-02-26T02:52:58.888Z,58.70
2023-02-26T02:55:28.142Z,59.00
2023-02-26T02:58:00.551Z,58.80
2023-02-26T03:00:29.042Z,58.60
2023-02-26T03:03:00.732Z,58.30
2023-02-26T03:05:28.769Z,58.60
2023-02-26T03:07:58.285Z,58.10
2023-02-26T03:10:26.317Z,58.50
2023-02-26T03:12:54.677Z,58.30
2023-02-26T03:15:31.916Z,58.30
2023-02-26T03:18:05.188Z,58.30
2023-02-26T03:20:35.071Z,58.40
2023-02-26T03:23:07.051Z,58.60
2023-02-26T03:25:39.723Z,58.80
2023-02-26T03:28:10.088Z,58.60
2023-02-26T03:30:40.268Z,58.60
2023-02-26T03:33:12.474Z,58.60
2023-02-26T03:35:46.004Z,58.60
2023-02-26T03:38:24.845Z,58.70
2023-02-26T03:40:55.359Z,59.00
2023-02-26T03:43:26.035Z,59.50
2023-02-26T03:45:55.307Z,58.70
2023-02-26T03:48:26.100Z,58.40
2023-02-26T03:50:56.532Z,58.40
2023-02-26T03:53:50.258Z,58.40
2023-02-26T03:56:24.637Z,58.70
2023-02-26T03:59:13.155Z,58.60
2023-02-26T04:01:49.580Z,58.50
2023-02-26T04:04:22.304Z,58.50
2023-02-26T04:06:53.474Z,58.60
2023-02-26T04:09:21.859Z,58.60
2023-02-26T04:11:50.661Z,59.00
2023-02-26T04:14:19.504Z,59.10
2023-02-26T04:16:47.774Z,58.80
2023-02-26T04:19:15.736Z,58.50
2023-02-26T04:21:48.787Z,58.50
2023-02-26T04:24:17.495Z,58.60
2023-02-26T04:26:45.874Z,58.70
2023-02-26T04:29:14.530Z,58.90
2023-02-26T04:31:42.652Z,58.60
2023-02-26T04:34:11.049Z,58.70
2023-02-26T04:36:40.484Z,58.80
2023-02-26T04:39:10.649Z,58.80
2023-02-26T04:41:38.920Z,58.80
2023-02-26T04:44:07.080Z,59.10
2023-02-26T04:46:37.384Z,59.20
2023-02-26T04:49:05.831Z,58.70
2023-02-26T04:51:33.859Z,58.50
2023-02-26T04:54:01.822Z,58.50
2023-02-26T04:56:32.215Z,58.60
2023-02-26T04:59:00.180Z,58.80
2023-02-26T05:01:32.066Z,58.50
2023-02-26T05:04:01.216Z,58.60
2023-02-26T05:06:29.227Z,58.60
2023-02-26T05:08:57.151Z,58.60
2023-02-26T05:11:25.033Z,58.60
2023-02-26T05:13:54.334Z,58.80
2023-02-26T05:16:22.385Z,58.60
2023-02-26T05:18:50.392Z,58.60
2023-02-26T05:21:19.361Z,58.60
2023-02-26T05:23:47.569Z,58.70
2023-02-26T05:26:15.511Z,58.70
2023-02-26T05:28:45.679Z,58.90
2023-02-26T05:31:15.054Z,59.00
2023-02-26T05:33:43.104Z,58.90
2023-02-26T05:36:11.235Z,58.60
2023-02-26T05:38:39.203Z,58.20
2023-02-26T05:41:07.121Z,58.70
2023-02-26T05:43:36.062Z,58.30
2023-02-26T05:46:04.074Z,58.60
2023-02-26T05:48:33.358Z,58.50
2023-02-26T05:51:01.415Z,58.40
2023-02-26T05:53:29.559Z,58.50
2023-02-26T05:55:57.507Z,58.60
2023-02-26T05:58:25.472Z,58.60
2023-02-26T06:00:53.407Z,58.90
2023-02-26T06:03:21.422Z,58.80
2023-02-26T06:05:50.832Z,58.80
2023-02-26T06:08:18.754Z,58.80
2023-02-26T06:10:46.683Z,58.90
2023-02-26T06:13:14.665Z,59.00
2023-02-26T06:15:42.624Z,59.20
2023-02-26T06:18:10.537Z,59.20
2023-02-26T06:20:38.582Z,58.90
2023-02-26T06:23:07.867Z,58.40
2023-02-26T06:25:35.770Z,58.40
2023-02-26T06:28:03.768Z,58.50
2023-02-26T06:30:31.739Z,58.70
2023-02-26T06:32:59.682Z,58.60
2023-02-26T06:35:28.506Z,58.50
2023-02-26T06:37:56.597Z,58.60
2023-02-26T06:40:25.949Z,58.70
2023-02-26T06:42:53.913Z,58.80
2023-02-26T06:45:21.858Z,58.90
2023-02-26T06:47:49.858Z,58.80
2023-02-26T06:50:18.359Z,58.80
2023-02-26T06:52:46.279Z,58.80
2023-02-26T06:55:14.256Z,58.80
2023-02-26T06:57:43.586Z,58.80
2023-02-26T07:00:12.496Z,58.90
2023-02-26T07:02:40.518Z,58.70
2023-02-26T07:05:09.127Z,58.80
2023-02-26T07:07:37.110Z,58.80
2023-02-26T07:10:05.646Z,58.70
2023-02-26T07:12:33.950Z,58.80
2023-02-26T07:15:03.272Z,58.80
2023-02-26T07:17:31.294Z,59.10
2023-02-26T07:20:00.714Z,58.90
2023-02-26T07:22:28.674Z,58.70
2023-02-26T07:24:56.644Z,58.30
2023-02-26T07:27:24.579Z,58.20
2023-02-26T07:29:52.515Z,58.30
2023-02-26T07:32:21.951Z,58.60
2023-02-26T07:34:50.401Z,58.40
2023-02-26T07:37:18.905Z,58.40
2023-02-26T07:39:46.954Z,58.50
2023-02-26T07:42:14.946Z,58.50
2023-02-26T07:44:43.537Z,58.70
2023-02-26T07:47:11.594Z,59.00
2023-02-26T07:49:40.914Z,58.80
2023-02-26T07:52:08.943Z,58.70
2023-02-26T07:54:37.040Z,58.70
2023-02-26T07:57:05.302Z,58.70
2023-02-26T07:59:33.226Z,58.80
2023-02-26T08:02:01.170Z,59.00
2023-02-26T08:04:29.182Z,59.10
2023-02-26T08:06:58.560Z,59.00
2023-02-26T08:09:26.497Z,58.50
2023-02-26T08:11:54.479Z,58.40
2023-02-26T08:14:22.403Z,58.50
2023-02-26T08:16:50.588Z,58.40
2023-02-26T08:19:18.558Z,58.40
2023-02-26T08:21:46.497Z,58.30
2023-02-26T08:24:15.956Z,58.50
2023-02-26T08:26:43.983Z,58.50
2023-02-26T08:29:11.899Z,58.60
2023-02-26T08:31:39.984Z,58.70
2023-02-26T08:34:08.033Z,58.80
2023-02-26T08:36:35.991Z,58.60
2023-02-26T08:39:03.971Z,58.70
2023-02-26T08:41:33.452Z,58.70
2023-02-26T08:44:01.649Z,58.70
2023-02-26T08:46:30.015Z,58.80
2023-02-26T08:48:58.143Z,59.00
2023-02-26T08:51:26.382Z,58.80
2023-02-26T08:53:54.610Z,58.90
2023-02-26T08:56:22.786Z,58.80
2023-02-26T08:58:52.257Z,59.00
2023-02-26T09:01:20.274Z,59.10
2023-02-26T09:03:48.276Z,59.10
2023-02-26T09:06:16.231Z,59.30
2023-02-26T09:08:44.234Z,59.10
2023-02-26T09:11:12.314Z,58.80
2023-02-26T09:13:40.350Z,58.40
2023-02-26T09:16:10.163Z,58.40
2023-02-26T09:18:38.259Z,58.50
2023-02-26T09:21:06.652Z,58.80
2023-02-26T09:23:34.620Z,58.80
2023-02-26T09:26:02.545Z,58.80
2023-02-26T09:28:30.515Z,58.90
2023-02-26T09:30:58.558Z,58.90
2023-02-26T09:33:28.088Z,59.00
2023-02-26T09:35:56.070Z,59.10
2023-02-26T09:38:24.494Z,59.10
2023-02-26T09:40:53.924Z,59.10
2023-02-26T09:43:55.090Z,59.10
2023-02-26T09:46:29.317Z,59.10
2023-02-26T09:49:05.565Z,59.10
2023-02-26T09:51:33.519Z,59.40
2023-02-26T09:54:02.621Z,59.20
2023-02-26T09:56:30.871Z,59.20
2023-02-26T09:58:59.273Z,59.20
2023-02-26T10:01:30.353Z,59.20
2023-02-26T10:04:03.614Z,59.20
2023-02-26T10:06:32.317Z,59.40
2023-02-26T10:09:25.854Z,59.50
2023-02-26T10:11:56.606Z,59.40
2023-02-26T10:14:25.517Z,59.00
2023-02-26T10:16:54.413Z,58.70
2023-02-26T10:19:25.663Z,58.50
2023-02-26T10:21:55.621Z,58.60
2023-02-26T10:24:25.583Z,58.90
2023-02-26T10:27:01.413Z,58.70
2023-02-26T10:29:33.866Z,58.80
2023-02-26T10:32:07.647Z,58.80
2023-02-26T10:34:40.221Z,58.70
2023-02-26T10:37:14.673Z,58.80
2023-02-26T10:39:45.574Z,59.00
2023-02-26T10:42:14.654Z,59.00
2023-02-26T10:44:45.799Z,59.00
2023-02-26T10:47:26.364Z,59.00
2023-02-26T10:49:57.511Z,59.00
2023-02-26T10:52:26.316Z,59.10
2023-02-26T10:55:04.662Z,59.10
2023-02-26T10:57:34.014Z,59.10
2023-02-26T11:00:02.088Z,59.20
2023-02-26T11:02:36.302Z,59.20
2023-02-26T11:05:08.217Z,59.10
2023-02-26T11:07:37.807Z,59.10
2023-02-26T11:10:09.231Z,59.40
2023-02-26T11:12:37.169Z,59.40
2023-02-26T11:15:05.875Z,59.10
2023-02-26T11:17:33.858Z,58.70
2023-02-26T11:20:05.313Z,58.60
2023-02-26T11:22:36.468Z,58.80
2023-02-26T11:25:05.234Z,58.90
2023-02-26T11:27:34.060Z,58.80
2023-02-26T11:30:08.077Z,58.90
2023-02-26T11:32:38.058Z,59.00
2023-02-26T11:35:09.104Z,59.10
2023-02-26T11:37:39.809Z,59.20
2023-02-26T11:40:14.923Z,59.10
2023-02-26T11:42:46.557Z,59.20
2023-02-26T11:45:15.201Z,59.20
2023-02-26T11:47:43.296Z,59.30
2023-02-26T11:50:14.067Z,59.90
2023-02-26T11:52:45.164Z,59.40
2023-02-26T11:55:19.683Z,59.30
2023-02-26T11:57:48.869Z,59.40
2023-02-26T12:00:20.719Z,59.40
2023-02-26T12:02:48.744Z,59.50
2023-02-26T12:05:18.103Z,59.50
2023-02-26T12:07:48.802Z,59.40
2023-02-26T12:10:18.808Z,59.40
2023-02-26T12:12:53.901Z,59.60
2023-02-26T12:15:29.937Z,59.60
2023-02-26T12:18:06.960Z,59.30
2023-02-26T12:20:38.270Z,59.00
2023-02-26T12:23:21.050Z,58.70
2023-02-26T12:26:01.007Z,58.80
2023-02-26T12:28:43.358Z,59.00
2023-02-26T12:31:43.710Z,58.90
2023-02-26T12:34:20.628Z,58.90
2023-02-26T12:36:58.454Z,59.00
2023-02-26T12:39:38.115Z,59.00
2023-02-26T12:42:15.311Z,59.10
2023-02-26T12:45:00.776Z,59.10
2023-02-26T12:47:44.821Z,59.10
2023-02-26T12:50:28.151Z,59.20
2023-02-26T12:53:19.900Z,59.20
2023-02-26T12:55:59.405Z,59.20
2023-02-26T12:58:55.600Z,59.40
2023-02-26T13:01:33.813Z,59.20
2023-02-26T13:04:37.280Z,59.40
2023-02-26T13:07:14.932Z,59.40
2023-02-26T13:09:50.737Z,59.40
2023-02-26T13:12:26.659Z,59.40
2023-02-26T13:14:57.706Z,59.60
2023-02-26T13:17:29.356Z,59.60
2023-02-26T13:19:58.676Z,59.30
2023-02-26T13:22:30.054Z,58.80
2023-02-26T13:24:59.931Z,58.70
2023-02-26T13:27:30.318Z,58.80
2023-02-26T13:30:06.150Z,59.00
2023-02-26T13:32:34.519Z,58.70
2023-02-26T13:35:04.997Z,58.90
2023-02-26T13:37:34.007Z,58.90
2023-02-26T13:40:18.374Z,59.00
2023-02-26T13:42:49.786Z,59.00
2023-02-26T13:45:24.804Z,59.20
2023-02-26T13:48:12.570Z,59.10
2023-02-26T13:50:46.332Z,59.00
2023-02-26T13:53:36.451Z,59.00
2023-02-26T13:56:08.505Z,59.10
2023-02-26T13:58:39.783Z,59.10
2023-02-26T14:01:11.764Z,59.40
2023-02-26T14:03:43.827Z,59.40
2023-02-26T14:06:36.693Z,58.80
2023-02-26T14:09:05.484Z,58.80
2023-02-26T14:11:48.437Z,58.70
2023-02-26T14:14:31.401Z,58.90
2023-02-26T14:17:21.149Z,58.90
2023-02-26T14:20:22.513Z,59.00
2023-02-26T14:22:53.647Z,59.00
2023-02-26T14:25:29.003Z,59.00
2023-02-26T14:28:35.691Z,59.00
2023-02-26T14:31:14.847Z,59.10
2023-02-26T14:33:45.643Z,59.00
2023-02-26T14:36:18.058Z,59.10
2023-02-26T14:38:46.522Z,59.10
2023-02-26T14:41:21.538Z,59.10
2023-02-26T14:43:52.446Z,59.20
2023-02-26T14:46:21.806Z,59.30
2023-02-26T14:48:50.194Z,59.20
2023-02-26T14:51:21.322Z,59.10
2023-02-26T14:54:05.802Z,58.60
2023-02-26T14:56:40.910Z,58.60
2023-02-26T14:59:16.764Z,58.60
2023-02-26T15:01:49.516Z,58.70
2023-02-26T15:04:35.535Z,58.70
2023-02-26T15:07:16.224Z,58.70
2023-02-26T15:09:51.127Z,58.80
2023-02-26T15:12:27.053Z,58.80
2023-02-26T15:15:22.347Z,58.90
2023-02-26T15:17:58.123Z,59.60
2023-02-26T15:20:31.597Z,59.00
2023-02-26T15:23:22.073Z,59.00
2023-02-26T15:25:50.279Z,59.00
2023-02-26T15:28:21.303Z,59.20
2023-02-26T15:30:49.974Z,59.10
2023-02-26T15:33:20.460Z,59.10
2023-02-26T15:35:49.610Z,59.10
2023-02-26T15:38:17.605Z,59.00
2023-02-26T15:40:45.622Z,59.70
2023-02-26T15:43:16.831Z,59.10
2023-02-26T15:45:45.975Z,59.00
2023-02-26T15:48:15.547Z,59.20
2023-02-26T15:50:47.108Z,59.30
2023-02-26T15:53:19.700Z,59.00
2023-02-26T15:55:54.301Z,58.60
2023-02-26T15:58:33.654Z,58.40
2023-02-26T16:01:02.064Z,58.50
2023-02-26T16:03:31.158Z,58.60
2023-02-26T16:06:00.579Z,58.60
2023-02-26T16:08:28.510Z,58.70
2023-02-26T16:10:57.565Z,58.80
2023-02-26T16:13:29.892Z,59.40
2023-02-26T16:16:00.817Z,58.80
2023-02-26T16:18:28.769Z,58.90
2023-02-26T16:20:58.013Z,59.00
2023-02-26T16:23:31.985Z,58.90
2023-02-26T16:26:01.243Z,59.00
2023-02-26T16:28:30.358Z,58.90
2023-02-26T16:30:59.145Z,59.00
2023-02-26T16:33:27.570Z,59.00
2023-02-26T16:35:56.647Z,59.20
2023-02-26T16:38:28.095Z,59.10
2023-02-26T16:41:00.595Z,58.80
2023-02-26T16:43:35.792Z,59.10
2023-02-26T16:46:05.172Z,58.50
2023-02-26T16:48:36.247Z,58.60
2023-02-26T16:51:07.514Z,58.70
2023-02-26T16:53:37.903Z,58.50
2023-02-26T16:56:06.163Z,58.70
2023-02-26T16:58:34.080Z,58.70
2023-02-26T17:01:06.787Z,58.70
2023-02-26T17:03:34.723Z,58.80
2023-02-26T17:06:04.164Z,58.80
2023-02-26T17:08:34.114Z,58.60
2023-02-26T17:11:04.924Z,58.60
2023-02-26T17:13:33.663Z,58.70
2023-02-26T17:16:03.348Z,58.70
2023-02-26T17:18:31.748Z,58.70
2023-02-26T17:20:59.972Z,58.80
2023-02-26T17:23:30.556Z,59.00
2023-02-26T17:26:02.257Z,58.70
2023-02-26T17:28:35.375Z,58.40
2023-02-26T17:31:03.526Z,58.40
2023-02-26T17:33:31.509Z,58.30
2023-02-26T17:36:00.610Z,58.40
2023-02-26T17:38:28.949Z,58.60
2023-02-26T17:40:58.254Z,58.40
2023-02-26T17:43:26.248Z,58.50
2023-02-26T17:45:55.873Z,58.60
2023-02-26T17:48:23.891Z,58.70
2023-02-26T17:50:52.859Z,58.70
2023-02-26T17:53:21.394Z,58.80
2023-02-26T17:55:50.380Z,58.80
2023-02-26T17:58:28.185Z,58.50
2023-02-26T18:00:57.577Z,58.40
2023-02-26T18:03:26.182Z,58.50
2023-02-26T18:05:55.087Z,58.60
2023-02-26T18:08:23.656Z,58.50
2023-02-26T18:10:52.121Z,58.60
2023-02-26T18:13:20.190Z,59.00
2023-02-26T18:15:48.152Z,58.90
2023-02-26T18:18:17.717Z,58.80
2023-02-26T18:20:46.100Z,58.80
2023-02-26T18:23:14.142Z,58.80
2023-02-26T18:25:42.632Z,58.80
2023-02-26T18:28:12.063Z,58.70
2023-02-26T18:30:41.768Z,58.30
2023-02-26T18:33:09.827Z,58.20
2023-02-26T18:35:45.544Z,58.30
2023-02-26T18:38:14.181Z,58.90
2023-02-26T18:40:42.443Z,58.30
2023-02-26T18:43:12.543Z,58.20
2023-02-26T18:45:40.591Z,58.30
2023-02-26T18:48:09.334Z,58.30
2023-02-26T18:50:37.364Z,58.30
2023-02-26T18:53:06.734Z,58.30
2023-02-26T18:55:36.415Z,58.40
2023-02-26T18:58:05.522Z,58.40
2023-02-26T19:00:33.814Z,58.50
2023-02-26T19:03:02.041Z,58.50
2023-02-26T19:05:30.086Z,58.50
2023-02-26T19:07:58.068Z,58.50
2023-02-26T19:10:29.416Z,58.50
2023-02-26T19:12:57.465Z,58.60
2023-02-26T19:15:25.560Z,58.70
2023-02-26T19:17:53.651Z,58.40
2023-02-26T19:20:21.785Z,58.00
2023-02-26T19:22:49.815Z,57.90
2023-02-26T19:25:24.280Z,58.00
2023-02-26T19:27:54.041Z,58.10
2023-02-26T19:30:22.245Z,58.00
2023-02-26T19:32:50.472Z,58.20
2023-02-26T19:35:19.574Z,58.10
2023-02-26T19:37:47.669Z,58.20
2023-02-26T19:40:16.718Z,58.30
2023-02-26T19:42:44.779Z,58.30
2023-02-26T19:45:14.508Z,58.20
2023-02-26T19:47:42.443Z,58.20
2023-02-26T19:50:14.041Z,58.30
2023-02-26T19:52:42.231Z,58.20
2023-02-26T19:55:11.158Z,58.40
2023-02-26T19:57:39.171Z,58.40
2023-02-26T20:00:08.352Z,58.50
2023-02-26T20:02:43.551Z,58.50
2023-02-26T20:05:16.855Z,58.00
2023-02-26T20:07:45.343Z,57.90
2023-02-26T20:10:15.022Z,57.90
2023-02-26T20:12:43.078Z,58.00
2023-02-26T20:15:11.936Z,58.10
2023-02-26T20:17:39.923Z,58.00
2023-02-26T20:20:11.056Z,58.10
2023-02-26T20:22:38.987Z,57.90
2023-02-26T20:25:07.416Z,58.20
2023-02-26T20:27:36.308Z,58.10
2023-02-26T20:30:04.356Z,58.20
2023-02-26T20:32:32.455Z,58.10
2023-02-26T20:35:00.388Z,58.10
2023-02-26T20:37:29.698Z,58.20
2023-02-26T20:39:57.856Z,58.20
2023-02-26T20:42:25.829Z,58.20
2023-02-26T20:44:53.840Z,58.20
2023-02-26T20:47:21.784Z,58.30
2023-02-26T20:49:49.759Z,58.30
2023-02-26T20:52:17.703Z,57.80
2023-02-26T20:54:46.996Z,57.70
2023-02-26T20:57:15.745Z,57.80
2023-02-26T20:59:43.681Z,57.80
2023-02-26T21:02:12.186Z,58.00
2023-02-26T21:04:40.077Z,57.90
2023-02-26T21:07:17.594Z,57.90
2023-02-26T21:09:47.919Z,57.90
2023-02-26T21:12:16.280Z,58.00
2023-02-26T21:14:44.512Z,58.00
2023-02-26T21:17:12.575Z,58.10
2023-02-26T21:19:40.811Z,58.30
2023-02-26T21:22:08.826Z,58.10
2023-02-26T21:24:36.785Z,57.70
2023-02-26T21:27:06.165Z,57.80
2023-02-26T21:29:34.103Z,57.90
2023-02-26T21:32:03.594Z,57.90
2023-02-26T21:34:34.332Z,57.80
2023-02-26T21:37:02.640Z,57.80
2023-02-26T21:39:30.793Z,57.80
2023-02-26T21:42:00.122Z,57.90
2023-02-26T21:44:29.496Z,58.00
2023-02-26T21:46:58.261Z,58.00
2023-02-26T21:49:26.272Z,57.90
2023-02-26T21:51:54.338Z,57.90
2023-02-26T21:54:22.637Z,58.00
2023-02-26T21:56:50.674Z,57.90
2023-02-26T21:59:18.852Z,58.00
2023-02-26T22:01:48.218Z,57.90
2023-02-26T22:04:16.224Z,58.00
2023-02-26T22:06:44.201Z,58.10
2023-02-26T22:09:12.283Z,58.00
2023-02-26T22:11:40.246Z,58.30
2023-02-26T22:14:08.192Z,57.30
2023-02-26T22:16:36.205Z,57.40
2023-02-26T22:19:05.503Z,57.40
2023-02-26T22:21:33.617Z,57.60
2023-02-26T22:24:03.579Z,57.50
2023-02-26T22:26:31.542Z,57.60
2023-02-26T22:29:00.638Z,57.60
2023-02-26T22:31:29.443Z,57.70
2023-02-26T22:33:57.554Z,57.70
2023-02-26T22:36:27.503Z,57.90
2023-02-26T22:38:55.448Z,57.70
2023-02-26T22:41:23.473Z,57.80
2023-02-26T22:43:53.952Z,57.80
2023-02-26T22:46:24.304Z,57.80
2023-02-26T22:48:52.487Z,57.80
2023-02-26T22:51:20.434Z,57.90
2023-02-26T22:53:50.666Z,57.80
2023-02-26T22:56:18.720Z,57.80
2023-02-26T22:58:46.730Z,57.80
2023-02-26T23:01:14.851Z,57.80
2023-02-26T23:03:42.815Z,57.90
2023-02-26T23:06:10.856Z,57.80
2023-02-26T23:08:39.257Z,58.00
2023-02-26T23:11:08.641Z,57.90
2023-02-26T23:13:37.401Z,57.50
2023-02-26T23:16:07.606Z,57.20
2023-02-26T23:18:36.520Z,57.30
2023-02-26T23:21:05.108Z,57.50
2023-02-26T23:23:33.220Z,57.40
2023-02-26T23:26:01.505Z,57.40
2023-02-26T23:28:31.042Z,57.40
2023-02-26T23:30:59.269Z,57.50
2023-02-26T23:33:27.379Z,57.50
2023-02-26T23:35:55.425Z,57.60
2023-02-26T23:38:23.476Z,57.60
2023-02-26T23:40:51.456Z,57.60
2023-02-26T23:43:19.467Z,57.60
2023-02-26T23:45:48.740Z,57.60
2023-02-26T23:48:16.784Z,57.60
2023-02-26T23:50:44.731Z,57.70
2023-02-26T23:53:12.673Z,57.70
2023-02-26T23:55:40.902Z,57.80
2023-02-26T23:58:08.836Z,57.90
